Time;durP1;ratioP1;P1;durP2;ratioP2;P2;SDS_P1;SDS_P2;PMS_P1;PMS_P2;Temp;Humidity;BMP_temperature;BMP_pressure;BME280_temperature;BME280_humidity;BME280_pressure;Samples;Min_cycle;Max_cycle;Signal;HPM_P1;HPM_P2
2024/03/18 00:04:07;;;;;;;8.90;5.07;;;;;;;;;;10298560;28;20434;-62
2024/03/18 00:09:07;;;;;;;9.13;4.88;;;;;;;;;;10316418;28;20034;-62
2024/03/18 00:14:09;;;;;;;8.00;4.78;;;;;;;;;;10321122;28;20037;-62
2024/03/18 00:19:10;;;;;;;8.45;4.53;;;;;;;;;;10321870;28;20406;-61
2024/03/18 00:24:10;;;;;;;8.85;4.47;;;;;;;;;;10326690;28;20037;-61
2024/03/18 00:29:12;;;;;;;9.38;5.03;;;;;;;;;;10321417;28;20030;-60
2024/03/18 00:34:13;;;;;;;7.90;4.78;;;;;;;;;;10326180;28;20486;-60
2024/03/18 00:39:14;;;;;;;7.25;4.35;;;;;;;;;;10325418;28;20045;-61
2024/03/18 00:44:19;;;;;;;7.25;4.72;;;;;;;;;;10306327;28;20023;-60
2024/03/18 00:49:20;;;;;;;8.73;4.88;;;;;;;;;;10298531;28;20391;-63
2024/03/18 00:54:21;;;;;;;9.75;4.50;;;;;;;;;;10311545;28;20034;-63
2024/03/18 00:59:21;;;;;;;7.45;4.43;;;;;;;;;;10313539;28;20351;-63
2024/03/18 01:04:23;;;;;;;7.45;4.80;;;;;;;;;;10324342;28;20454;-63
2024/03/18 01:09:23;;;;;;;6.43;4.28;;;;;;;;;;10310080;28;20049;-63
2024/03/18 01:14:24;;;;;;;7.03;4.15;;;;;;;;;;10301638;28;20028;-64
2024/03/18 01:19:25;;;;;;;7.60;4.72;;;;;;;;;;10310476;28;20065;-63
2024/03/18 01:24:26;;;;;;;6.82;4.07;;;;;;;;;;10313199;28;20039;-63
2024/03/18 01:29:27;;;;;;;8.80;4.22;;;;;;;;;;10300759;28;20028;-64
2024/03/18 01:34:28;;;;;;;7.60;4.30;;;;;;;;;;10302139;28;20050;-64
2024/03/18 01:39:29;;;;;;;7.47;4.30;;;;;;;;;;10313780;28;20034;-62
2024/03/18 01:44:30;;;;;;;6.53;4.03;;;;;;;;;;10300731;28;20069;-63
2024/03/18 01:49:30;;;;;;;7.15;4.32;;;;;;;;;;10313881;28;20066;-62
2024/03/18 01:54:31;;;;;;;7.75;4.18;;;;;;;;;;10313240;28;20465;-61
2024/03/18 01:59:32;;;;;;;5.75;4.20;;;;;;;;;;10310412;28;20402;-63
2024/03/18 02:04:33;;;;;;;5.15;4.15;;;;;;;;;;10316069;28;20374;-62
2024/03/18 02:09:33;;;;;;;7.53;4.00;;;;;;;;;;10317478;28;20041;-64
2024/03/18 02:14:34;;;;;;;11.43;4.20;;;;;;;;;;10310840;28;20030;-62
2024/03/18 02:19:34;;;;;;;6.72;4.20;;;;;;;;;;10313811;28;20023;-65
2024/03/18 02:24:35;;;;;;;5.40;4.18;;;;;;;;;;10322391;28;20038;-64
2024/03/18 02:29:36;;;;;;;6.05;4.05;;;;;;;;;;10324219;28;20039;-64
2024/03/18 02:34:38;;;;;;;10.60;4.32;;;;;;;;;;10301006;28;20035;-61
2024/03/18 02:39:39;;;;;;;7.18;4.05;;;;;;;;;;10306454;28;20551;-63
2024/03/18 02:44:40;;;;;;;6.15;3.85;;;;;;;;;;10319080;28;20034;-63
2024/03/18 02:49:40;;;;;;;7.40;3.85;;;;;;;;;;10303542;28;20030;-63
2024/03/18 02:54:41;;;;;;;4.82;3.75;;;;;;;;;;10312755;28;20026;-64
2024/03/18 02:59:41;;;;;;;6.18;3.85;;;;;;;;;;10315952;28;20258;-60
2024/03/18 03:04:42;;;;;;;4.25;3.42;;;;;;;;;;10318284;28;20035;-64
2024/03/18 03:09:43;;;;;;;5.10;4.00;;;;;;;;;;10321231;28;20498;-63
2024/03/18 03:14:46;;;;;;;5.28;3.80;;;;;;;;;;10317779;28;20030;-63
2024/03/18 03:19:47;;;;;;;7.28;3.85;;;;;;;;;;10293698;28;20026;-63
2024/03/18 03:24:47;;;;;;;3.83;3.25;;;;;;;;;;10305324;28;20034;-63
2024/03/18 03:29:48;;;;;;;4.45;3.65;;;;;;;;;;10307345;28;20034;-63
2024/03/18 03:34:48;;;;;;;5.93;3.85;;;;;;;;;;10284841;28;20117;-60
2024/03/18 03:39:49;;;;;;;5.15;3.67;;;;;;;;;;10286564;28;20467;-64
2024/03/18 03:44:50;;;;;;;5.93;3.95;;;;;;;;;;10286460;28;20467;-64
2024/03/18 03:49:50;;;;;;;6.25;4.05;;;;;;;;;;10295915;28;20023;-64
2024/03/18 03:54:51;;;;;;;4.28;3.40;;;;;;;;;;10301672;28;20387;-64
2024/03/18 03:59:51;;;;;;;5.15;3.78;;;;;;;;;;10300667;28;20031;-63
2024/03/18 04:04:52;;;;;;;5.13;3.55;;;;;;;;;;10298368;28;20083;-63
2024/03/18 04:09:53;;;;;;;5.55;4.05;;;;;;;;;;10289740;28;20038;-63
2024/03/18 04:14:53;;;;;;;4.90;4.03;;;;;;;;;;10297299;28;20539;-62
2024/03/18 04:19:54;;;;;;;5.40;3.88;;;;;;;;;;10284351;28;20030;-63
2024/03/18 04:24:55;;;;;;;4.50;3.80;;;;;;;;;;10298154;28;20058;-63
2024/03/18 04:29:56;;;;;;;5.82;4.28;;;;;;;;;;10288185;28;20427;-61
2024/03/18 04:34:56;;;;;;;7.10;3.88;;;;;;;;;;10299418;28;20050;-62
2024/03/18 04:39:57;;;;;;;4.85;3.88;;;;;;;;;;10288651;28;20089;-61
2024/03/18 04:44:57;;;;;;;5.38;3.80;;;;;;;;;;10296850;28;20027;-61
2024/03/18 04:49:58;;;;;;;6.13;3.97;;;;;;;;;;10292137;28;20391;-62
2024/03/18 04:54:58;;;;;;;7.55;4.40;;;;;;;;;;10292864;28;20026;-62
2024/03/18 04:59:59;;;;;;;4.60;3.95;;;;;;;;;;10286412;28;20255;-65
2024/03/18 05:05:00;;;;;;;8.27;4.13;;;;;;;;;;10294563;28;20034;-63
2024/03/18 05:10:00;;;;;;;6.22;4.60;;;;;;;;;;10292353;28;20035;-64
2024/03/18 05:15:01;;;;;;;6.60;4.53;;;;;;;;;;10309393;28;20379;-62
2024/03/18 05:20:03;;;;;;;5.60;4.78;;;;;;;;;;10299410;28;20076;-63
2024/03/18 05:25:06;;;;;;;5.25;4.10;;;;;;;;;;10312393;28;20482;-62
2024/03/18 05:30:08;;;;;;;5.95;4.15;;;;;;;;;;10288455;28;20034;-62
2024/03/18 05:35:08;;;;;;;5.00;4.13;;;;;;;;;;10292423;28;20413;-64
2024/03/18 05:40:09;;;;;;;6.85;4.55;;;;;;;;;;10288334;28;20118;-65
2024/03/18 05:45:10;;;;;;;7.43;4.47;;;;;;;;;;10296167;28;20265;-64
2024/03/18 05:50:10;;;;;;;7.07;4.43;;;;;;;;;;10309699;28;20031;-64
2024/03/18 05:55:11;;;;;;;6.00;4.70;;;;;;;;;;10301567;28;20374;-63
2024/03/18 06:00:12;;;;;;;4.88;4.18;;;;;;;;;;10306451;28;20406;-64
2024/03/18 06:05:13;;;;;;;6.68;4.18;;;;;;;;;;10300334;28;20537;-63
2024/03/18 06:10:16;;;;;;;5.50;4.35;;;;;;;;;;10302286;28;20054;-63
2024/03/18 06:15:17;;;;;;;5.32;4.80;;;;;;;;;;10297112;28;20034;-63
2024/03/18 06:20:18;;;;;;;6.70;4.82;;;;;;;;;;10314872;28;20042;-60
2024/03/18 06:30:38;;;;;;;5.18;4.65;;;;;;;;;;10317428;28;20105;-61
2024/03/18 06:35:39;;;;;;;5.20;4.47;;;;;;;;;;10308617;28;20039;-61
2024/03/18 06:40:40;;;;;;;6.20;4.40;;;;;;;;;;10298132;28;20031;-59
2024/03/18 06:45:40;;;;;;;6.05;4.78;;;;;;;;;;10284110;28;20035;-60
2024/03/18 06:50:41;;;;;;;8.20;4.93;;;;;;;;;;10286929;28;20026;-60
2024/03/18 06:55:44;;;;;;;8.88;4.95;;;;;;;;;;10275033;28;20411;-59
2024/03/18 07:00:45;;;;;;;11.90;5.70;;;;;;;;;;10307593;28;20587;-59
2024/03/18 07:05:45;;;;;;;9.75;5.82;;;;;;;;;;10302049;28;20272;-60
2024/03/18 07:10:46;;;;;;;10.75;6.93;;;;;;;;;;10288477;28;20023;-59
2024/03/18 07:15:47;;;;;;;20.08;8.10;;;;;;;;;;10294585;28;20034;-60
2024/03/18 07:20:48;;;;;;;11.57;7.60;;;;;;;;;;10308141;28;20077;-59
2024/03/18 07:25:51;;;;;;;11.98;8.13;;;;;;;;;;10288060;28;20386;-60
2024/03/18 07:30:53;;;;;;;11.18;8.38;;;;;;;;;;10289757;28;20025;-59
2024/03/18 07:35:54;;;;;;;12.80;8.63;;;;;;;;;;10291379;28;20045;-59
2024/03/18 07:40:55;;;;;;;19.80;8.48;;;;;;;;;;10286252;28;20050;-60
2024/03/18 07:45:55;;;;;;;16.05;8.27;;;;;;;;;;10274544;28;20043;-59
2024/03/18 07:50:56;;;;;;;10.75;8.15;;;;;;;;;;10285221;28;20415;-60
2024/03/18 07:56:00;;;;;;;11.90;8.05;;;;;;;;;;10273185;28;20421;-60
2024/03/18 08:01:01;;;;;;;11.48;7.40;;;;;;;;;;10261570;28;20035;-61
2024/03/18 08:06:08;;;;;;;14.27;7.28;;;;;;;;;;10249302;28;20027;-60
2024/03/18 08:11:09;;;;;;;13.63;7.78;;;;;;;;;;10284884;28;20026;-59
2024/03/18 08:16:09;;;;;;;20.70;7.65;;;;;;;;;;10297802;28;20035;-60
2024/03/18 08:21:10;;;;;;;10.93;6.97;;;;;;;;;;10285150;28;20058;-60
2024/03/18 08:26:11;;;;;;;9.82;7.22;;;;;;;;;;10284467;28;20345;-61
2024/03/18 08:31:11;;;;;;;10.32;7.45;;;;;;;;;;10285188;28;20055;-60
2024/03/18 08:36:15;;;;;;;8.73;6.88;;;;;;;;;;10272043;28;20038;-60
2024/03/18 08:41:16;;;;;;;13.38;7.15;;;;;;;;;;10285412;28;20058;-59
2024/03/18 08:46:16;;;;;;;11.52;7.00;;;;;;;;;;10285278;28;20097;-60
2024/03/18 08:51:17;;;;;;;11.85;6.75;;;;;;;;;;10291880;28;20114;-60
2024/03/18 08:56:17;;;;;;;9.30;7.10;;;;;;;;;;10291513;28;20054;-59
2024/03/18 09:01:18;;;;;;;10.65;6.63;;;;;;;;;;10292412;28;20034;-59
2024/03/18 09:06:19;;;;;;;10.13;6.40;;;;;;;;;;10290738;28;20034;-61
2024/03/18 09:11:19;;;;;;;11.07;6.65;;;;;;;;;;10290862;28;20023;-61
2024/03/18 09:16:20;;;;;;;11.15;6.93;;;;;;;;;;10291178;28;20023;-61
2024/03/18 09:21:21;;;;;;;9.63;7.13;;;;;;;;;;10290255;28;20031;-61
2024/03/18 09:26:21;;;;;;;7.82;6.15;;;;;;;;;;10290485;28;20106;-61
2024/03/18 09:31:22;;;;;;;10.00;6.15;;;;;;;;;;10278894;28;20537;-61
2024/03/18 09:36:22;;;;;;;9.32;5.60;;;;;;;;;;10290514;28;20438;-59
2024/03/18 09:41:24;;;;;;;10.57;5.88;;;;;;;;;;10285770;28;20451;-61
2024/03/18 09:46:25;;;;;;;14.50;6.90;;;;;;;;;;10289851;28;20049;-61
2024/03/18 09:51:28;;;;;;;8.65;5.88;;;;;;;;;;10275487;28;20033;-60
2024/03/18 09:56:28;;;;;;;8.15;6.40;;;;;;;;;;10289660;28;20101;-59
2024/03/18 10:01:30;;;;;;;11.02;6.80;;;;;;;;;;10289022;28;20053;-61
2024/03/18 10:06:33;;;;;;;10.43;6.68;;;;;;;;;;10288821;28;20194;-61
2024/03/18 10:11:34;;;;;;;8.75;6.00;;;;;;;;;;10275320;28;20214;-61
2024/03/18 10:16:34;;;;;;;7.93;6.05;;;;;;;;;;10266592;28;20104;-60
2024/03/18 10:21:38;;;;;;;11.07;6.40;;;;;;;;;;10289801;28;20037;-61
2024/03/18 10:26:39;;;;;;;7.80;5.97;;;;;;;;;;10288750;28;20029;-61
2024/03/18 10:31:40;;;;;;;10.75;6.70;;;;;;;;;;10288294;28;20384;-60
2024/03/18 10:36:42;;;;;;;8.23;5.78;;;;;;;;;;10288591;28;20070;-61
2024/03/18 10:41:44;;;;;;;8.52;6.03;;;;;;;;;;10294726;28;20345;-60
2024/03/18 10:46:46;;;;;;;9.77;6.43;;;;;;;;;;10300301;28;20050;-59
2024/03/18 10:51:49;;;;;;;6.25;5.30;;;;;;;;;;10293049;28;20073;-59
2024/03/18 10:56:49;;;;;;;7.65;5.75;;;;;;;;;;10287552;28;20118;-60
2024/03/18 11:01:50;;;;;;;6.07;5.10;;;;;;;;;;10274574;28;20471;-60
2024/03/18 11:06:55;;;;;;;7.15;5.93;;;;;;;;;;10286968;28;20027;-59
2024/03/18 11:11:55;;;;;;;10.07;5.93;;;;;;;;;;10287242;28;20023;-59
2024/03/18 11:16:56;;;;;;;10.00;6.05;;;;;;;;;;10286641;28;20105;-60
2024/03/18 11:22:02;;;;;;;9.18;5.72;;;;;;;;;;10279669;28;20114;-59
2024/03/18 11:27:03;;;;;;;9.23;5.35;;;;;;;;;;10273696;28;20021;-59
2024/03/18 11:32:04;;;;;;;7.75;5.15;;;;;;;;;;10283948;28;20475;-59
2024/03/18 11:37:05;;;;;;;9.43;5.75;;;;;;;;;;10263113;28;20128;-59
2024/03/18 11:42:06;;;;;;;7.47;5.30;;;;;;;;;;10286920;28;20022;-60
2024/03/18 11:47:08;;;;;;;6.95;5.60;;;;;;;;;;10286063;28;20069;-59
2024/03/18 11:52:13;;;;;;;6.18;5.35;;;;;;;;;;10276248;28;20035;-59
2024/03/18 11:57:14;;;;;;;7.22;5.05;;;;;;;;;;10284000;28;20022;-60
2024/03/18 12:02:15;;;;;;;7.03;5.05;;;;;;;;;;10285375;28;20066;-60
2024/03/18 12:07:16;;;;;;;7.60;5.05;;;;;;;;;;10286103;28;20065;-60
2024/03/18 12:12:17;;;;;;;7.40;5.65;;;;;;;;;;10278312;28;20039;-60
2024/03/18 12:17:17;;;;;;;6.97;5.20;;;;;;;;;;10273985;28;20062;-59
2024/03/18 12:22:23;;;;;;;6.47;5.20;;;;;;;;;;10293297;28;20514;-59
2024/03/18 12:32:47;;;;;;;5.53;4.93;;;;;;;;;;10293216;28;20043;-60
2024/03/18 12:37:52;;;;;;;7.10;5.25;;;;;;;;;;10292402;28;20180;-59
2024/03/18 12:42:56;;;;;;;7.20;5.20;;;;;;;;;;10292240;28;20110;-59
2024/03/18 12:47:57;;;;;;;7.00;4.88;;;;;;;;;;10289390;28;20031;-60
2024/03/18 12:52:58;;;;;;;5.78;5.18;;;;;;;;;;10290435;28;20030;-60
2024/03/18 12:57:58;;;;;;;5.82;5.10;;;;;;;;;;10290488;28;20027;-58
2024/03/18 13:02:59;;;;;;;11.00;5.47;;;;;;;;;;10291547;28;20030;-59
2024/03/18 13:08:00;;;;;;;7.22;4.95;;;;;;;;;;10273626;28;20042;-60
2024/03/18 13:13:00;;;;;;;7.35;5.00;;;;;;;;;;10292005;28;20030;-61
2024/03/18 13:18:01;;;;;;;8.75;5.05;;;;;;;;;;10278507;28;20032;-60
2024/03/18 13:23:01;;;;;;;6.13;4.93;;;;;;;;;;10289499;28;20430;-61
2024/03/18 13:28:02;;;;;;;5.65;4.97;;;;;;;;;;10285109;28;20035;-60
2024/03/18 13:33:04;;;;;;;5.70;4.38;;;;;;;;;;10290572;28;20045;-60
2024/03/18 13:38:04;;;;;;;6.20;4.75;;;;;;;;;;10289258;28;20035;-60
2024/03/18 13:43:05;;;;;;;5.57;4.20;;;;;;;;;;10300760;28;20035;-59
2024/03/18 13:48:07;;;;;;;6.05;4.50;;;;;;;;;;10299050;28;20395;-60
2024/03/18 13:53:07;;;;;;;8.05;4.72;;;;;;;;;;10281647;28;20443;-60
2024/03/18 13:58:08;;;;;;;7.88;4.88;;;;;;;;;;10297754;28;20030;-61
2024/03/18 14:03:08;;;;;;;8.70;4.72;;;;;;;;;;10304698;28;20038;-60
2024/03/18 14:08:09;;;;;;;5.78;4.40;;;;;;;;;;10293945;28;20473;-60
2024/03/18 14:13:10;;;;;;;6.35;4.90;;;;;;;;;;10290078;28;20034;-60
2024/03/18 14:18:10;;;;;;;6.50;4.97;;;;;;;;;;10287126;28;20022;-61
2024/03/18 14:23:11;;;;;;;6.55;4.80;;;;;;;;;;10292194;28;20487;-61
2024/03/18 14:28:11;;;;;;;5.40;4.90;;;;;;;;;;10282869;28;20038;-60
2024/03/18 14:33:12;;;;;;;6.18;5.07;;;;;;;;;;10296287;23;20030;-59
2024/03/18 14:38:13;;;;;;;7.10;5.20;;;;;;;;;;10324530;28;20096;-52
2024/03/18 14:43:15;;;;;;;6.65;5.30;;;;;;;;;;10328214;28;20033;-53
2024/03/18 14:48:16;;;;;;;9.45;5.65;;;;;;;;;;10327274;28;20027;-50
2024/03/18 14:53:17;;;;;;;7.60;5.38;;;;;;;;;;10326760;28;20030;-52
2024/03/18 14:58:18;;;;;;;7.22;4.80;;;;;;;;;;10327831;28;20490;-52
2024/03/18 15:03:19;;;;;;;6.13;5.05;;;;;;;;;;10326877;28;20050;-52
2024/03/18 15:08:20;;;;;;;6.68;4.63;;;;;;;;;;10326538;28;20061;-52
2024/03/18 15:13:30;;;;;;;7.03;5.28;;;;;;;;;;10326591;28;20026;-52
2024/03/18 15:18:30;;;;;;;7.07;5.35;;;;;;;;;;10326324;28;20072;-52
2024/03/18 15:24:50;;;;;;;8.13;5.28;;;;;;;;;;10325463;28;20360;-52
2024/03/18 15:29:10;;;;;;;7.95;4.88;;;;;;;;;;10308440;28;20085;-50
2024/03/18 15:34:11;;;;;;;6.88;4.88;;;;;;;;;;10323413;28;20049;-52
2024/03/18 15:39:17;;;;;;;7.57;5.15;;;;;;;;;;10321781;28;20078;-52
2024/03/18 15:44:18;;;;;;;6.30;4.95;;;;;;;;;;10325783;28;20042;-51
2024/03/18 15:49:18;;;;;;;4.65;4.22;;;;;;;;;;10325086;28;20022;-50
2024/03/18 15:54:19;;;;;;;6.72;5.30;;;;;;;;;;10325410;28;20034;-51
2024/03/18 15:59:20;;;;;;;7.18;4.78;;;;;;;;;;10325392;28;20054;-54
2024/03/18 16:04:21;;;;;;;8.10;5.40;;;;;;;;;;10320069;28;20113;-57
2024/03/18 16:09:22;;;;;;;5.00;4.50;;;;;;;;;;10323947;28;20022;-56
2024/03/18 16:14:23;;;;;;;6.75;4.53;;;;;;;;;;10324634;28;20026;-51
2024/03/18 16:19:23;;;;;;;6.45;4.63;;;;;;;;;;10324579;28;20033;-52
2024/03/18 16:24:24;;;;;;;6.00;4.20;;;;;;;;;;10325083;28;20038;-51
2024/03/18 16:29:25;;;;;;;11.10;5.25;;;;;;;;;;10324403;28;20494;-52
2024/03/18 16:34:26;;;;;;;6.22;4.55;;;;;;;;;;10322587;28;20093;-51
2024/03/18 16:39:27;;;;;;;6.32;4.97;;;;;;;;;;10324564;28;20065;-47
2024/03/18 16:44:27;;;;;;;5.22;4.72;;;;;;;;;;10323995;28;20034;-51
2024/03/18 16:49:28;;;;;;;6.78;4.93;;;;;;;;;;10324242;28;20486;-48
2024/03/18 16:54:29;;;;;;;6.78;4.47;;;;;;;;;;10324007;28;20525;-48
2024/03/18 16:59:29;;;;;;;5.13;4.20;;;;;;;;;;10322819;28;20449;-48
2024/03/18 17:04:30;;;;;;;5.90;4.72;;;;;;;;;;10330002;28;20092;-51
2024/03/18 17:09:31;;;;;;;7.82;4.57;;;;;;;;;;10331296;28;20034;-47
2024/03/18 17:14:31;;;;;;;4.85;4.30;;;;;;;;;;10331225;28;20364;-47
2024/03/18 17:19:32;;;;;;;5.53;4.45;;;;;;;;;;10330160;28;20030;-48
2024/03/18 17:24:33;;;;;;;5.03;4.00;;;;;;;;;;10330545;28;20430;-47
2024/03/18 17:29:34;;;;;;;5.05;4.55;;;;;;;;;;10330203;28;20034;-48
2024/03/18 17:34:34;;;;;;;5.68;4.47;;;;;;;;;;10330420;28;20428;-46
2024/03/18 17:39:35;;;;;;;6.90;4.65;;;;;;;;;;10330360;28;20085;-50
2024/03/18 17:44:36;;;;;;;5.90;4.50;;;;;;;;;;10326703;28;20025;-48
2024/03/18 17:49:37;;;;;;;5.65;4.43;;;;;;;;;;10329958;28;20026;-49
2024/03/18 17:54:39;;;;;;;5.82;4.50;;;;;;;;;;10329588;28;20033;-52
2024/03/18 17:59:40;;;;;;;6.15;4.70;;;;;;;;;;10329528;28;20082;-52
2024/03/18 18:04:41;;;;;;;5.70;4.35;;;;;;;;;;10329464;28;20034;-51
2024/03/18 18:09:42;;;;;;;5.88;5.05;;;;;;;;;;10329037;28;20610;-49
2024/03/18 18:14:42;;;;;;;4.50;4.10;;;;;;;;;;10328429;28;20356;-51
2024/03/18 18:19:44;;;;;;;4.85;4.18;;;;;;;;;;10328175;28;20026;-51
2024/03/18 18:24:44;;;;;;;5.13;4.60;;;;;;;;;;10328023;28;20396;-52
2024/03/18 18:29:45;;;;;;;4.65;4.10;;;;;;;;;;10328333;28;20029;-51
2024/03/18 18:34:46;;;;;;;4.88;4.30;;;;;;;;;;10328075;28;20043;-52
2024/03/18 18:39:47;;;;;;;4.80;4.32;;;;;;;;;;10327586;28;20030;-55
2024/03/18 18:44:47;;;;;;;5.28;4.63;;;;;;;;;;10324670;28;20030;-51
2024/03/18 18:49:48;;;;;;;8.32;4.80;;;;;;;;;;10321372;28;20037;-55
2024/03/18 18:54:49;;;;;;;4.70;4.28;;;;;;;;;;10324868;28;20023;-56
2024/03/18 18:59:56;;;;;;;8.88;4.65;;;;;;;;;;10322667;28;20495;-54
2024/03/18 19:05:03;;;;;;;6.10;4.28;;;;;;;;;;10320195;28;20105;-53
2024/03/18 19:10:11;;;;;;;9.07;4.75;;;;;;;;;;10324049;28;20033;-52
2024/03/18 19:15:13;;;;;;;5.55;4.78;;;;;;;;;;10309472;28;20058;-52
2024/03/18 19:20:14;;;;;;;5.47;4.85;;;;;;;;;;10317671;28;20037;-53
2024/03/18 19:25:16;;;;;;;5.53;4.70;;;;;;;;;;10312855;28;20030;-51
2024/03/18 19:30:17;;;;;;;10.95;4.93;;;;;;;;;;10322693;28;20022;-51
2024/03/18 19:35:18;;;;;;;6.68;4.97;;;;;;;;;;10321650;28;20066;-53
2024/03/18 19:40:19;;;;;;;6.88;4.70;;;;;;;;;;10315741;28;20034;-51
2024/03/18 19:45:21;;;;;;;10.00;5.80;;;;;;;;;;10322751;28;20092;-49
2024/03/18 19:50:22;;;;;;;7.47;5.88;;;;;;;;;;10323371;28;20061;-53
2024/03/18 19:55:22;;;;;;;10.70;5.60;;;;;;;;;;10322659;28;20026;-51
2024/03/18 20:00:25;;;;;;;11.65;5.82;;;;;;;;;;10315345;28;20027;-52
2024/03/18 20:05:27;;;;;;;18.33;6.38;;;;;;;;;;10313697;28;20026;-52
2024/03/18 20:10:28;;;;;;;11.48;6.38;;;;;;;;;;10319638;28;20072;-53
2024/03/18 20:15:28;;;;;;;10.98;6.32;;;;;;;;;;10298690;28;20026;-53
2024/03/18 20:20:29;;;;;;;9.05;6.13;;;;;;;;;;10319817;28;20034;-53
2024/03/18 20:25:29;;;;;;;13.48;7.38;;;;;;;;;;10320417;28;20032;-52
2024/03/18 20:30:31;;;;;;;13.50;7.07;;;;;;;;;;10277221;28;20363;-52
2024/03/18 20:35:32;;;;;;;11.15;7.00;;;;;;;;;;10315577;28;20054;-53
2024/03/18 20:40:33;;;;;;;11.98;7.10;;;;;;;;;;10325378;28;20034;-53
2024/03/18 20:45:34;;;;;;;13.57;7.30;;;;;;;;;;10324113;28;20113;-52
2024/03/18 20:50:35;;;;;;;8.77;7.15;;;;;;;;;;10323751;28;20398;-53
2024/03/18 20:55:35;;;;;;;10.63;7.78;;;;;;;;;;10322133;28;20023;-53
2024/03/18 21:00:36;;;;;;;10.85;6.72;;;;;;;;;;10320556;28;20027;-49
2024/03/18 21:05:37;;;;;;;12.25;7.13;;;;;;;;;;10326745;28;20034;-53
2024/03/18 21:10:37;;;;;;;15.77;6.78;;;;;;;;;;10320754;28;20034;-52
2024/03/18 21:15:38;;;;;;;9.48;6.88;;;;;;;;;;10322222;28;20034;-52
2024/03/18 21:20:39;;;;;;;9.50;7.07;;;;;;;;;;10318218;28;20422;-48
2024/03/18 21:25:40;;;;;;;16.92;7.72;;;;;;;;;;10329509;28;20101;-53
2024/03/18 21:30:42;;;;;;;11.98;7.25;;;;;;;;;;10319117;28;20041;-52
2024/03/18 21:35:43;;;;;;;8.15;6.28;;;;;;;;;;10323076;28;20112;-52
2024/03/18 21:40:44;;;;;;;14.38;7.15;;;;;;;;;;10319664;28;20030;-52
2024/03/18 21:45:44;;;;;;;11.15;6.75;;;;;;;;;;10324448;28;20123;-53
2024/03/18 21:50:45;;;;;;;10.82;6.88;;;;;;;;;;10326544;28;20027;-51
2024/03/18 21:55:46;;;;;;;14.13;6.63;;;;;;;;;;10326660;28;20118;-51
2024/03/18 22:00:46;;;;;;;8.32;6.63;;;;;;;;;;10327507;28;20029;-52
2024/03/18 22:05:47;;;;;;;10.02;6.25;;;;;;;;;;10320398;28;20038;-51
2024/03/18 22:10:48;;;;;;;9.88;5.82;;;;;;;;;;10325249;28;20037;-49
2024/03/18 22:15:48;;;;;;;18.65;7.97;;;;;;;;;;10326225;28;20041;-51
2024/03/18 22:20:49;;;;;;;10.02;6.38;;;;;;;;;;10323464;28;20027;-51
2024/03/18 22:25:50;;;;;;;18.67;6.78;;;;;;;;;;10321518;28;20124;-47
2024/03/18 22:30:50;;;;;;;16.63;6.63;;;;;;;;;;10322326;28;20097;-52
2024/03/18 22:35:52;;;;;;;11.80;6.30;;;;;;;;;;10321161;28;20102;-48
2024/03/18 22:40:53;;;;;;;10.02;6.13;;;;;;;;;;10310534;28;20354;-53
2024/03/18 22:45:54;;;;;;;9.95;6.38;;;;;;;;;;10322152;28;20029;-49
2024/03/18 22:50:55;;;;;;;10.40;6.30;;;;;;;;;;10318549;28;20501;-47
2024/03/18 22:55:59;;;;;;;11.18;6.60;;;;;;;;;;10318538;28;20030;-50
2024/03/18 23:01:01;;;;;;;8.15;6.72;;;;;;;;;;10317394;28;20045;-53
2024/03/18 23:06:03;;;;;;;11.02;6.90;;;;;;;;;;10322242;28;20505;-51
2024/03/18 23:11:05;;;;;;;11.35;6.28;;;;;;;;;;10316792;28;20019;-48
2024/03/18 23:16:06;;;;;;;8.38;6.15;;;;;;;;;;10322397;28;20117;-49
2024/03/18 23:21:06;;;;;;;12.80;6.75;;;;;;;;;;10318529;28;20389;-51
2024/03/18 23:26:07;;;;;;;10.50;6.05;;;;;;;;;;10303679;28;20041;-50
2024/03/18 23:31:08;;;;;;;9.40;5.63;;;;;;;;;;10324418;28;20038;-53
2024/03/18 23:36:08;;;;;;;7.03;5.70;;;;;;;;;;10323478;28;20278;-52
2024/03/18 23:41:09;;;;;;;11.40;6.03;;;;;;;;;;10324353;28;20034;-48
2024/03/18 23:46:12;;;;;;;12.88;6.03;;;;;;;;;;10324502;28;20030;-51
2024/03/18 23:51:14;;;;;;;11.73;5.65;;;;;;;;;;10321648;28;20030;-51
2024/03/18 23:56:17;;;;;;;21.48;5.55;;;;;;;;;;10323685;28;20080;-53
